x

Neah Bay, - 6nm North Of Cape Flattery, Wa (traffic Separation Lighted Buoy) (46087) Wave Buoy

11:50am - Sat 21st Oct 2017 All times are PDT. -7 hours from GMT.

  • Sig Wave height 7.2ft
  • Swell Direction
  • Peak Period 14s
  • Average Period 6s
  • Wind
    22mph, 27mph gusts
  • Sea Temp 52°f
  • Air Temp 49°f
  • Sea Pressure 1002.5mb
  • Neah Bay, - 6nm North Of Cape Flattery, Wa     (traffic Separation Lighted Buoy)
  • Neah Bay, - 6nm North Of Cape Flattery, Wa     (traffic Separation Lighted Buoy)

More Historic Weather Station data

Upgrade to MSW Pro to gain access to the past 30 days of data for over 8000 Wavebouys and Weather Stations around the globe.

Join

Comparision Forecast

View Surf forecast
   
Sat 10/21 11:50am 7ft 14s 6s 22 27 mph 1002.5mb 52f 49f
11:20am 8ft 14s 6s 25 29 mph 1002.4mb 52f 48f
10:50am 7.5ft 8s 6s 25 29 mph 1002.3mb 52f 48f
10:20am 7.5ft 13s 7s 27 31 mph 1001.9mb 52f 48f
9:50am 7ft 13s 7s 20 25 mph 1001.9mb 52f 48f
9:20am 7ft 13s 7s 22 27 mph 1001.6mb 52f 47f
8:50am 6.5ft 14s 7s 20 25 mph 1002.1mb 52f 47f
8:20am 7ft 12s 7s 20 25 mph 1002.5mb 52f 47f
7:50am 7.5ft 14s 7s 20 27 mph 1002.4mb 52f 47f
7:20am 7ft 13s 7s 20 27 mph 1002.7mb 52f 47f
6:50am 8ft 12s 8s 22 27 mph 1003.2mb 52f 47f
6:20am 7.5ft 11s 8s 20 27 mph 1004.1mb 52f 48f
5:50am 8.5ft 13s 8s 22 27 mph 1004.8mb 52f 48f
5:20am 9ft 13s 8s 22 27 mph 1005.6mb 52f 48f
4:50am 8ft 13s 8s 22 29 mph 1005.9mb 52f 48f
4:20am 8.5ft 12s 8s 20 25 mph 1006.3mb 52f 48f
3:50am 9ft 11s 8s 18 22 mph 1007.2mb 51f 47f
3:20am 9.5ft 13s 8s 22 27 mph 1007.6mb 51f 49f
2:50am 9ft 11s 8s 25 29 mph 1008.1mb 51f 49f
2:20am 10ft 11s 9s 22 27 mph 1008.3mb 51f 49f
1:50am 10ft 14s 9s 20 25 mph 1008.4mb 50f 49f
1:20am 10ft 14s 9s 20 25 mph 1008.9mb 50f 49f
12:50am 10ft 11s 9s 16 22 mph 1009.3mb 50f 49f
12:20am 10ft 14s 9s 13 18 mph 1009.6mb 50f 49f
Fri 10/20 11:50pm 10ft 15s 9s 13 20 mph 1009.9mb 50f 49f
11:20pm 11ft 12s 10s 13 18 mph 1010.2mb 50f 49f
10:50pm 10.5ft 13s 9s 13 18 mph 1010.5mb 50f 49f
10:20pm 9.5ft 13s 10s 11 16 mph 1010.3mb 51f 49f
9:50pm 10ft 12s 10s 16 18 mph 1010.3mb 51f 49f
9:20pm 10ft 13s 10s 9 13 mph 1010.2mb 51f 49f
8:50pm 11ft 11s 10s 9 13 mph 1010.4mb 51f 50f
8:20pm 11ft 13s 10s 7 11 mph 1010.4mb 52f 50f
7:50pm 11ft 14s 10s 7 11 mph 1010.4mb 52f 51f
7:20pm 11ft 15s 10s 4 7 mph 1010.2mb 52f 51f
6:50pm 12.5ft 14s 10s 9 11 mph 1010.1mb 52f 51f
6:20pm 12.5ft 12s 10s 11 13 mph 1009.8mb 52f 51f
5:50pm 13ft 14s 10s 13 16 mph 1009.4mb 52f 50f
5:20pm 13.5ft 15s 10s 16 20 mph 1009.1mb 52f 51f
4:50pm 13.5ft 15s 10s 11 16 mph 1008.8mb 52f 51f
4:20pm 13ft 14s 10s 11 13 mph 1008.5mb 52f 52f
3:50pm 12ft 15s 10s 11 13 mph 1008.1mb 52f 51f
3:20pm 12ft 15s 9s 11 16 mph 1007.6mb 52f 51f
2:50pm 12ft 15s 9s 13 20 mph 1007.4mb 52f 51f
2:20pm 12ft 14s 9s 16 20 mph 1007.1mb 52f 51f
1:50pm 11.5ft 13s 9s 18 20 mph 1006.8mb 52f 51f
1:20pm 12ft 15s 10s 16 20 mph 1006.3mb 52f 51f
12:50pm 12ft 15s 10s 18 22 mph 1005.9mb 52f 51f
12:20pm 12.5ft 14s 10s 13 18 mph 1005.4mb 52f 51f
11:50am 12.5ft 15s 10s 13 18 mph 1004.9mb 51f 50f
11:20am 9.5ft 15s 9s 11 13 mph 1004.4mb 51f 50f
10:50am 10ft 15s 10s 7 9 mph 1004.1mb 51f 50f
10:20am 12ft 15s 11s 9 11 mph 1003.7mb 51f 50f
9:50am 11ft 15s 11s 11 16 mph 1003.2mb 51f 50f
9:20am 11ft 15s 11s 13 16 mph 1002.5mb 51f 50f
8:50am 10ft 15s 10s 9 11 mph 1002.2mb 51f 50f
7:50am 11.5ft 16s 10s 11 16 mph 1001.5mb 51f 50f
7:20am 11ft 16s 10s 16 29 mph 1000.9mb 51f 50f
6:50am 11.5ft 14s 10s 18 22 mph 1000.3mb 51f 51f
6:20am 11ft 13s 10s 11 16 mph 1000.4mb 51f 51f
5:50am 10ft 16s 9s 13 18 mph 1000.1mb 51f 51f
5:20am 11.5ft 14s 10s 16 22 mph 999.7mb 51f 51f
4:50am 12.5ft 17s 11s 16 18 mph 999.5mb 51f 51f
4:20am 11.5ft 14s 10s 16 20 mph 999.1mb 51f 51f
3:50am 11ft 16s 9s 13 18 mph 999mb 51f 50f
3:20am 13ft 13s 9s 16 18 mph 999mb 51f 50f
2:50am 14ft 17s 10s 16 18 mph 998.7mb 51f 50f
2:20am 13.5ft 14s 10s 16 18 mph 998.6mb 51f 50f
1:50am 15.5ft 16s 10s 16 20 mph 998.6mb 51f 50f
1:20am 14ft 12s 9s 16 18 mph 998.5mb 51f 50f
12:50am 16.5ft 16s 10s 7 11 mph 998.7mb 51f 50f
12:20am 14.5ft 16s 10s 11 13 mph 998.6mb 51f 50f
Thu 10/19 11:50pm 15ft 16s 10s 9 13 mph 998.5mb 51f 50f
11:20pm 15ft 17s 10s 7 9 mph 998.4mb 51f 50f
10:50pm 14ft 15s 10s 9 11 mph 998.4mb 51f 50f
10:20pm 14.5ft 14s 11s 7 9 mph 998.2mb 51f 49f
9:50pm 15.5ft 16s 11s 9 11 mph 997.9mb 51f 49f
9:20pm 17.5ft 14s 12s 9 13 mph 997.7mb 51f 49f
8:50pm 19ft 14s 12s 9 11 mph 997.6mb 51f 49f
8:20pm 16.5ft 14s 11s 9 13 mph 997.3mb 51f 49f
7:50pm 16ft 13s 11s 11 16 mph 997mb 51f 49f
7:20pm 15.5ft 16s 11s 13 18 mph 996.7mb 51f 49f
6:50pm 17.5ft 15s 12s 13 22 mph 996.2mb 51f 49f
6:20pm 15.5ft 16s 12s 11 16 mph 996.5mb 51f 49f
5:50pm 14ft 16s 11s 7 11 mph 996.5mb 51f 49f
5:20pm 15ft 15s 11s 7 9 mph 996.4mb 51f 49f
4:50pm 13ft 14s 11s 11 16 mph 996.1mb 51f 49f
4:20pm 14ft 15s 11s 11 16 mph 996.1mb 51f 49f
3:50pm 15ft 15s 11s 13 18 mph 996.1mb 51f 49f
3:20pm 13.5ft 16s 11s 11 16 mph 996.1mb 51f 50f
2:50pm 15ft 17s 11s 9 11 mph 996.3mb 51f 51f
2:20pm 16.5ft 15s 12s 11 18 mph 996.5mb 51f 51f
1:50pm 15ft 16s 11s 11 16 mph 996.3mb 51f 49f
1:20pm 13.5ft 16s 10s 9 13 mph 996.5mb 51f 50f
12:50pm 13.5ft 17s 10s 16 20 mph 996.3mb 51f 53f
12:20pm 15ft 16s 11s 11 18 mph 996.8mb 51f 53f
11:50am 14ft 15s 10s 9 13 mph 996.7mb 51f 53f
11:20am 15ft 14s 10s 11 13 mph 996.8mb 51f 53f
10:50am 14ft 13s 10s 13 16 mph 996.9mb 51f 53f
10:20am 15ft 14s 10s 4 9 mph 997mb 51f 52f
9:50am 15.5ft 12s 10s 9 13 mph 997mb 51f 52f
9:20am 14ft 13s 10s 9 11 mph 997.1mb 51f 51f
8:20am 13ft 12s 9s 18 22 mph 997.2mb 51f 51f
7:50am 13ft 12s 9s 18 22 mph 997.1mb 51f 52f
7:20am 13ft 11s 9s 18 29 mph 997.3mb 51f 52f
6:50am 11ft 11s 8s 18 25 mph 997.1mb 51f 54f
6:20am 13ft 11s 9s 20 27 mph 997mb 51f 55f
5:50am 11ft 11s 8s 20 27 mph 997.2mb 51f 54f
5:20am 11ft 11s 8s 25 31 mph 997.2mb 51f 55f
4:50am 11ft 10s 8s 20 27 mph 997.4mb 51f 55f
4:20am 11ft 10s 8s 25 34 mph 997.6mb 51f 55f
3:50am 10ft 11s 8s 22 27 mph 998mb 51f 54f
3:20am 11ft 10s 8s 27 38 mph 998.1mb 51f 53f
2:50am 10.5ft 10s 7s 18 22 mph 998.3mb 51f 54f
2:20am 10.5ft 10s 7s 18 22 mph 998.5mb 51f 53f
1:50am 12.5ft 11s 8s 22 27 mph 998.4mb 51f 54f
1:20am 11ft 11s 8s 25 29 mph 998.3mb 51f 54f
12:50am 11.5ft 10s 8s 25 29 mph 998.2mb 50f 54f
12:20am 12ft 10s 8s 22 27 mph 998.3mb 50f 54f
Wed 10/18 11:50pm 9.5ft 10s 7s 25 31 mph 998mb 50f 54f
11:20pm 12ft 10s 8s 29 34 mph 998.1mb 50f 54f
10:50pm 10.5ft 10s 8s 27 34 mph 998mb 50f 54f
10:20pm 9.5ft 11s 8s 27 31 mph 998.2mb 50f 54f
9:50pm 11ft 11s 9s 22 31 mph 998.5mb 50f 54f
9:20pm 10.5ft 11s 9s 16 20 mph 998.6mb 51f 51f
8:50pm 10ft 11s 9s 16 20 mph 999.1mb 51f 51f
8:20pm 9ft 10s 8s 20 27 mph 999.3mb 51f 51f
7:50pm 8.5ft 11s 8s 20 27 mph 998.8mb 51f 53f
7:20pm 9.5ft 11s 8s 20 25 mph 999mb 51f 53f
6:50pm 10ft 11s 8s 20 22 mph 999mb 51f 53f
6:20pm 12ft 10s 8s 20 25 mph 999.1mb 51f 52f
5:50pm 10.5ft 10s 8s 18 22 mph 998.8mb 51f 52f
5:20pm 11ft 11s 8s 18 25 mph 998.4mb 51f 53f
4:50pm 12ft 10s 9s 16 20 mph 998.4mb 51f 53f
4:20pm 11.5ft 10s 8s 9 13 mph 998.7mb 51f 52f
3:50pm 11ft 10s 8s 4 9 mph 998.4mb 51f 52f
3:20pm 11ft 10s 7s 2 7 mph 998.2mb 50f 52f
2:50pm 12ft 8s 7s 9 11 mph 997.9mb 50f 52f
2:20pm 12.5ft 9s 7s 13 18 mph 997.5mb 50f 53f
1:50pm 10ft 8s 6s 31 38 mph 996.9mb 50f 54f
1:20pm 9ft 8s 6s 34 43 mph 996.5mb 50f 54f
12:50pm 8ft 8s 6s 36 45 mph 996.8mb 50f 55f
12:20pm 9ft 7s 5s 36 43 mph 997.2mb 50f 55f
11:50am 7.5ft 6s 5s 40 51 mph 997.2mb 49f 56f
11:20am 7ft 8s 5s 36 47 mph 998.1mb 49f 56f
10:50am 6ft 7s 5s 27 36 mph 999.7mb 49f 56f
10:20am 5ft 8s 5s 22 29 mph 1000.7mb 49f 48f
9:50am 4.5ft 8s 5s 25 31 mph 1001.3mb 49f 47f
9:20am 4.5ft 10s 5s 27 31 mph 1002.5mb 50f 47f
8:50am 4.5ft 10s 5s 29 36 mph 1003mb 50f 48f
8:20am 4.5ft 8s 5s 29 34 mph 1003.7mb 50f 48f
7:50am 4.5ft 9s 5s 27 31 mph 1005.2mb 50f 48f
7:20am 4.5ft 9s 6s 25 29 mph 1006.6mb 50f 48f
6:50am 4.5ft 10s 6s 25 27 mph 1007.6mb 50f 48f
6:20am 5ft 10s 7s 22 27 mph 1008.6mb 50f 48f
5:50am 5ft 9s 6s 20 22 mph 1009.5mb 50f 48f
5:20am 6ft 10s 7s 22 27 mph 1009.3mb 50f 49f
4:50am 6ft 10s 7s 20 22 mph 1010.5mb 50f 48f
4:20am 6.5ft 9s 7s 16 18 mph 1011.9mb 50f 49f
3:50am 6ft 9s 7s 16 18 mph 1012.7mb 50f 49f
3:20am 6.5ft 9s 7s 18 20 mph 1013.3mb 50f 49f
2:50am 6.5ft 10s 7s 16 20 mph 1014.4mb 50f 48f
2:20am 6.5ft 8s 7s 16 20 mph 1014.4mb 50f 48f
1:50am 7.5ft 9s 7s 18 20 mph 1014.8mb 50f 48f
1:20am 7.5ft 9s 7s 11 13 mph 1015.7mb 50f 49f
12:50am 8ft 9s 7s 11 16 mph 1016.1mb 50f 49f
12:20am 7.5ft 9s 7s 9 11 mph 1016.5mb 50f 48f
Tue 10/17 11:50pm 9ft 10s 7s 7 9 mph 1017.3mb 50f 48f
11:20pm 9ft 9s 7s 9 11 mph 1017.2mb 50f 48f
10:50pm 8ft 9s 7s 7 11 mph 1017.9mb 50f 50f
10:20pm 9ft 9s 8s  -  4 mph 1018.3mb 50f 50f
9:50pm 8.5ft 10s 8s 4 7 mph 1018.4mb 50f 50f
9:20pm 8.5ft 9s 8s 4 7 mph 1018.5mb 50f 50f
8:50pm 9.5ft 9s 8s 2 4 mph 1019mb 50f 51f
8:20pm 10ft 10s 8s 4 7 mph 1019mb 50f 51f
7:50pm 8ft 9s 8s 4 7 mph 1019.2mb 50f 51f